AirNav   Air Wisconsin pilot careers
 
 834 users online  

12XA Wood Farm Airfield
Gardendale, Texas, USA

GOING TO GARDENDALE?


FAA INFORMATION EFFECTIVE 24 MAY 2018

Location

FAA Identifier: 12XA
Lat/Long: 32-02-21.6000N / 102-20-54.9000W
32-02.360000N / 102-20.915000W
32.0393333 / -102.3485833
(estimated)
Elevation: 2950 ft. / 899 m (estimated)
From city: 3 miles W of GARDENDALE, TX
Time zone: UTC -5 (UTC -6 during Standard Time)
Zip code: 79758

Airport Operations

Airport use: Private use. Permission required prior to landing
Activation date: 11/2010
Control tower: no
ARTCC: FORT WORTH CENTER
FSS: SAN ANGELO FLIGHT SERVICE STATION
Attendance: UNATNDD
Wind indicator: yes
Segmented circle: no

Airport Communications

WX ASOS at ODO (7 nm S): 119.275 (432-363-9719)
WX ASOS at MAF (9 nm SE): PHONE 432-561-5935
WX AWOS-3 at MDD (13 nm E): 118.125 (432-687-4605)
WX AWOS-3 at E11 (20 nm NW): 118.2 (432-524-2471)

Nearby radio navigation aids

VOR radial/distance  VOR name  Freq  Var
MAFr272/8.2MIDLAND VORTAC114.8011E

 
NDB name  Hdg/Dist  Freq  Var  ID
FARLY330/3.332609EMA -- .-

Airport Services

Runway Information

Runway 1/19

Dimensions: 2000 x 150 ft. / 610 x 46 m
Surface: turf, in good condition
RUNWAY 1  RUNWAY 19
Traffic pattern: leftleft
Obstructions: 150 ft. tower, 4330 ft. from runway30 ft. pline, 600 ft. from runway

Airport Ownership and Management from official FAA records

Ownership: Privately-owned
Owner: JOE PAUL WOOD
PO BOX 12467
ODESSA, TX 79768
Phone 432-332-5551
Manager: JOE PAUL WOOD
PO BOX 14963
ODESSA, TX 79768
Phone 432-332-5551

Airport Operational Statistics

Aircraft based on the field: 1
Single engine airplanes: 1
    

Additional Remarks

NUMEROUS 30 FT PUMPJACKS ON ARPT.

Instrument Procedures

There are no published instrument procedures at 12XA.

Some nearby airports with instrument procedures:

KODO - Odessa Airport-Schlemeyer Field (7 nm S)
KMAF - Midland International Air and Space Port Airport (9 nm SE)
KMDD - Midland Airpark (13 nm E)
E11 - Andrews County Airport (20 nm NW)
E01 - Roy Hurd Memorial Airport (40 nm SW)
 
Loc | Ops | Rwys | IFR | FBO | Links
Com | Nav | Svcs | Stats | Notes

Chandler Aviation LLC
 
Aerial photo
No photo
 
Sectional chart

 
Airport distance calculator
Flying to Wood Farm Airfield? Find the distance to fly.

From to 12XA

Sunrise and sunset
Times for 17-Jun-2018
 Local
(UTC-5)
 Zulu
(UTC)
Morning civil twilight06:1611:16
Sunrise06:4411:44
Sunset20:5701:57
Evening civil twilight21:2502:25

Current date and time
Zulu (UTC)  18-Jun-2018 02:55:25
Local (UTC-5)  17-Jun-2018 21:55:25
 
METAR
KODO 
8nm S 
180153Z AUTO 16006KT 10SM CLR 25/18 A2998 RMK AO2 SLP109 T02500183
KMAF 
9nm SE 
180153Z 16005KT 10SM CLR 25/19 A2996 RMK AO2 SLP103 T02500189
KMDD 
13nm E 
180235Z AUTO 12005KT 10SM 26/20 A2998 RMK AO2 T02570195
KE11 
20nm NW 
180235Z AUTO 13006KT 10SM CLR 23/19 A2999 RMK AO2 T02260191
TAF
KMAF 
9nm SE 
180209Z 1802/1824 18011KT P6SM SCT200 FM181600 12011KT P6SM SCT120
NOTAMs
Click for the latest NOTAMs
NOTAMs are issued by the DoD/FAA and will open in a separate window not controlled by AirNav.

 

 
 

Would you like to see your business listed on this page?

 If your business provides an interesting product or service to pilots, flight crews, aircraft, or users of the Wood Farm Airfield, you should consider listing it here.  To start the listing process, click on the button below
 
Add a business
 

Other Pages about Wood Farm Airfield

Update a link
 
Copyright © AirNav, LLC. All rights reserved. Privacy Policy  Contact